Terminal Aerodrome Forecast
Issued by NWS

Home | Current Version | Previous Version | Text Only | Print | Product List | Glossary On
Versions: 1 2 3 4 5 6 7 8 9 10 11 12 13 14 15 16 17 18 19 20 21 22 23 24 25 26 27 28 29 30 31 32 33 34 35 36
000
FTUS46 KOTX 212330
TAFMWH
TAF
KMWH 212330Z 2200/2224 21012KT P6SM FEW080
     FM220100 18006KT P6SM SCT100
     FM220700 15008KT P6SM SCT120 BKN150 OVC200
     FM220900 15012KT P6SM SCT080 BKN100 OVC150
     FM221600 16011KT P6SM VCSH BKN080 OVC100
     FM221800 17011KT P6SM -RA SCT030 BKN040 OVC060=

USA.gov is the U.S. government's official web portal to all federal, state and local government web resources and services.